Philip — WDF2430 — position and weather

sailwx.info

Track history (hours):
 
Tides and Currents Weather Stations Pressure Air Temp Water Temp Dewpoint Dewpoint Depression Visibility Wind Speed Wind Dir Waves Ship Positions

Philip

Owner: Enterprise Marine Services, LLC, San Antonio, TX. More information available from US FCC via Universal Licensing System and Coast Guard Vessel Documentation Center.

Last reported at 2017-Sep-22 02:00 UTC. Time now 2017-Sep-22 08:33 UTC.
Position N 30°04' W 093°21'.

Length 23 m; draft 2.7 m.

Type: Tug. MMSI: 367003780.

Date/timePositionNaut miles runAvg speedWind from/ knotsBaromVisibWave heightAir tempDewpointWater temp
2017-Sep-22 02:00N 30°04' W 093°21'0 0.0
2017-Sep-22 01:30N 30°04' W 093°21'0 0.0
2017-Sep-22 01:00N 30°04' W 093°21'0 0.0
2017-Sep-22 00:31N 30°04' W 093°21'0 0.0
2017-Sep-22 00:00N 30°04' W 093°21'0 0.0
2017-Sep-21 23:30N 30°04' W 093°21'0 0.0
2017-Sep-21 23:00N 30°04' W 093°21'0 0.0
2017-Sep-21 22:30N 30°04' W 093°21'0 0.0
2017-Sep-21 22:00N 30°04' W 093°21'0 0.0
2017-Sep-21 21:30N 30°04' W 093°21'1 1.4
2017-Sep-21 21:00N 30°04' W 093°21'0 0.4
2017-Sep-21 20:30N 30°04' W 093°21'1 1.0
2017-Sep-21 20:00N 30°04' W 093°21'0 0.0
2017-Sep-21 19:27N 30°04' W 093°21'0 0.0
2017-Sep-21 19:00N 30°04' W 093°21'0 0.0
2017-Sep-21 18:30N 30°04' W 093°21'0 0.0
2017-Sep-21 18:00N 30°04' W 093°21'0 0.0
2017-Sep-21 17:30N 30°04' W 093°21'0 0.0
2017-Sep-21 17:00N 30°04' W 093°21'0 0.0
2017-Sep-21 16:24N 30°04' W 093°21'0 0.0
2017-Sep-21 16:00N 30°04' W 093°21'0 0.0
2017-Sep-21 15:30N 30°04' W 093°21'0 0.0
2017-Sep-21 15:00N 30°04' W 093°21'0 0.0
2017-Sep-21 14:30N 30°04' W 093°21'0 0.0
2017-Sep-21 14:00N 30°04' W 093°21'0 0.0
2017-Sep-21 13:30N 30°04' W 093°21'0 0.0
2017-Sep-21 13:00N 30°04' W 093°21'0 0.0
2017-Sep-21 12:30N 30°04' W 093°21'0 0.0
2017-Sep-21 12:00N 30°04' W 093°21'0 0.0
2017-Sep-21 11:30N 30°04' W 093°21'0 0.0
2017-Sep-21 11:00N 30°04' W 093°21'0 0.0
2017-Sep-21 10:30N 30°04' W 093°21'0 0.0
2017-Sep-21 10:00N 30°04' W 093°21'0 0.0
2017-Sep-21 09:30N 30°04' W 093°21'0 0.0
2017-Sep-21 09:00N 30°04' W 093°21'0 0.0
2017-Sep-21 08:30N 30°04' W 093°21'0 0.0
2017-Sep-21 08:00N 30°04' W 093°21'0 0.0
2017-Sep-21 07:30N 30°04' W 093°21'0 0.0
2017-Sep-21 07:00N 30°04' W 093°21'0 0.0
2017-Sep-21 06:30N 30°04' W 093°21'0 0.0
2017-Sep-21 06:00N 30°04' W 093°21'0 0.3
2017-Sep-21 05:30N 30°04' W 093°21'3 5.1
2017-Sep-21 05:00N 30°04' W 093°24'0 0.0
2017-Sep-21 04:30N 30°04' W 093°24'0 0.0
2017-Sep-21 04:00N 30°04' W 093°24'1 2.6
2017-Sep-21 03:31N 30°04' W 093°25'1 1.6
2017-Sep-21 03:01N 30°04' W 093°26'3 5.5
2017-Sep-21 02:30N 30°04' W 093°29'2 3.9
2017-Sep-21 02:00N 30°04' W 093°32'78 4.7
2017-Sep-20 09:31N 29°31' W 094°53'0 6.7
2017-Sep-20 09:27N 29°32' W 094°54'3 6.7
2017-Sep-20 09:00N 29°34' W 094°56'4 7.1
2017-Sep-20 08:30N 29°37' W 094°58'4 7.5
2017-Sep-20 08:00N 29°41' W 094°59'3 5.5
2017-Sep-20 07:30N 29°43' W 095°01'2 5.0
2017-Sep-20 07:00N 29°44' W 095°03'2 0.4
2017-Sep-20 01:57N 29°45' W 095°06'3 0.6
2017-Sep-19 21:03N 29°44' W 095°09'1 5.5
2017-Sep-19 20:57N 29°44' W 095°09'0 0.0
2017-Sep-19 02:34N 29°44' W 095°10'0 0.0
2017-Sep-19 01:36N 29°44' W 095°10'0 0.0
2017-Sep-19 01:28N 29°44' W 095°10'0 0.0
2017-Sep-19 01:00N 29°44' W 095°10'0 0.0
2017-Sep-19 00:30N 29°44' W 095°10'0 0.0
2017-Sep-19 00:00N 29°44' W 095°10'1 1.2
2017-Sep-18 23:17N 29°44' W 095°09'2 2.8
2017-Sep-18 22:30N 29°45' W 095°06'5 1.7
2017-Sep-18 19:47N 29°43' W 095°01'2 5.2
2017-Sep-18 19:22N 29°42' W 094°59'2 5.8
2017-Sep-18 19:00N 29°40' W 094°58'3 6.1
2017-Sep-18 18:30N 29°37' W 094°57'3 6.1
2017-Sep-18 18:00N 29°34' W 094°55'3 6.3
2017-Sep-18 17:30N 29°32' W 094°53'71 3.5
2017-Sep-17 21:14N 30°04' W 093°41'1 5.3
2017-Sep-17 20:59N 30°04' W 093°39'2 5.1
2017-Sep-17 20:30N 30°04' W 093°36'2 4.7
2017-Sep-17 20:00N 30°04' W 093°34'2 4.7
2017-Sep-17 19:30N 30°04' W 093°31'2 4.6
2017-Sep-17 19:00N 30°04' W 093°28'2 3.7
2017-Sep-17 18:30N 30°04' W 093°26'2 3.9
2017-Sep-17 18:00N 30°04' W 093°24'2 4.4
2017-Sep-17 17:30N 30°04' W 093°22'2 3.5
2017-Sep-17 17:00N 30°05' W 093°20'2 3.2
2017-Sep-17 16:30N 30°06' W 093°19'2 3.3
2017-Sep-17 16:00N 30°05' W 093°17'1 1.8
2017-Sep-17 15:30N 30°05' W 093°16'0 0.1
2017-Sep-17 15:00N 30°04' W 093°16'0 0.0
2017-Sep-17 14:30N 30°04' W 093°16'0 0.1
2017-Sep-17 14:00N 30°04' W 093°16'0 0.0
2017-Sep-17 13:30N 30°04' W 093°16'0 0.0
2017-Sep-17 13:00N 30°04' W 093°16'0 0.0
2017-Sep-17 12:30N 30°04' W 093°16'0 0.0
2017-Sep-17 12:00N 30°04' W 093°16'0 0.0
2017-Sep-17 11:30N 30°04' W 093°16'0 0.0
2017-Sep-17 11:00N 30°04' W 093°16'0 0.1
2017-Sep-17 10:30N 30°04' W 093°16'0 0.0
2017-Sep-17 10:00N 30°04' W 093°16'0 0.0
2017-Sep-17 09:30N 30°04' W 093°16'0 0.0
2017-Sep-17 09:00N 30°04' W 093°16'0 0.0
2017-Sep-17 08:30N 30°04' W 093°16'0 0.0
2017-Sep-17 08:00N 30°04' W 093°16'0 0.0
2017-Sep-17 07:30N 30°04' W 093°16'0 0.0
2017-Sep-17 07:00N 30°04' W 093°16'0 0.0
2017-Sep-17 06:30N 30°04' W 093°16'0 0.0
2017-Sep-17 06:00N 30°04' W 093°16'0 0.0
2017-Sep-17 05:30N 30°04' W 093°16'0 0.0
2017-Sep-17 04:57N 30°04' W 093°16'0 0.0
2017-Sep-17 04:30N 30°04' W 093°16'0 0.0
2017-Sep-17 04:00N 30°04' W 093°16'0 0.0
2017-Sep-17 03:30N 30°04' W 093°16'0 0.0
2017-Sep-17 03:00N 30°04' W 093°16'0 0.6
2017-Sep-17 02:30N 30°04' W 093°16'0 0.0
2017-Sep-17 02:00N 30°04' W 093°16'0 0.1
2017-Sep-17 01:30N 30°04' W 093°16'0 0.1
2017-Sep-17 01:00N 30°04' W 093°16'1 2.2
2017-Sep-17 00:30N 30°03' W 093°16'2 3.2
2017-Sep-17 00:00N 30°02' W 093°15'2 4.0
2017-Sep-16 23:30N 30°00' W 093°13'2 4.3
2017-Sep-16 23:00N 29°58' W 093°12'2 4.9
2017-Sep-16 22:30N 29°57' W 093°10'2 4.4
2017-Sep-16 22:00N 29°56' W 093°08'2 3.9
2017-Sep-16 21:23N 29°56' W 093°05'41 4.4
2017-Sep-16 12:12N 29°50' W 092°18'1 3.0
2017-Sep-16 11:59N 29°50' W 092°18'1 2.4
2017-Sep-16 11:30N 29°49' W 092°17'1 1.9
2017-Sep-16 11:00N 29°48' W 092°16'0 0.1
2017-Sep-16 10:30N 29°48' W 092°16'0 0.0
2017-Sep-16 10:00N 29°48' W 092°16'0 0.0
2017-Sep-16 09:30N 29°48' W 092°16'0 0.0
2017-Sep-16 09:00N 29°48' W 092°16'0 0.0
2017-Sep-16 08:30N 29°48' W 092°16'0 0.0
2017-Sep-16 08:00N 29°48' W 092°16'0 0.0
2017-Sep-16 07:30N 29°48' W 092°16'0 0.0
2017-Sep-16 07:00N 29°48' W 092°16'0 0.0
2017-Sep-16 06:30N 29°48' W 092°16'1 1.6
2017-Sep-16 06:00N 29°48' W 092°15'1 2.1
2017-Sep-16 05:30N 29°48' W 092°14'1 2.9
2017-Sep-16 05:00N 29°47' W 092°12'0 0.7
2017-Sep-16 04:30N 29°47' W 092°12'1 2.0
2017-Sep-16 04:00N 29°47' W 092°11'1 2.0
2017-Sep-16 03:30N 29°47' W 092°10'2 4.0
2017-Sep-16 03:00N 29°47' W 092°08'2 4.6
2017-Sep-16 02:30N 29°48' W 092°05'2 4.4
2017-Sep-16 02:00N 29°49' W 092°03'64 3.6
2017-Sep-15 08:23N 29°32' W 090°51'1 4.0
2017-Sep-15 08:01N 29°32' W 090°50'2 4.0
2017-Sep-15 07:31N 29°32' W 090°47'2 3.2
2017-Sep-15 07:01N 29°33' W 090°45'2 3.2
2017-Sep-15 06:30N 29°34' W 090°44'1 2.5
2017-Sep-15 06:01N 29°35' W 090°43'1 2.4
2017-Sep-15 05:31N 29°36' W 090°43'1 2.4
2017-Sep-15 05:00N 29°37' W 090°42'1 2.7
2017-Sep-15 04:30N 29°36' W 090°41'2 3.6
2017-Sep-15 04:01N 29°36' W 090°39'2 3.7
2017-Sep-15 03:30N 29°35' W 090°37'2 3.5
2017-Sep-15 03:01N 29°35' W 090°35'2 3.6
2017-Sep-15 02:31N 29°34' W 090°33'2 3.8
2017-Sep-15 02:00N 29°34' W 090°31'1 2.5
2017-Sep-15 01:31N 29°34' W 090°30'  
Track history (hours):
 
Tides and Currents Weather Stations Pressure Air Temp Water Temp Dewpoint Dewpoint Depression Visibility Wind Speed Wind Dir Waves Ship Positions

Philip

Owner: Enterprise Marine Services, LLC, San Antonio, TX. More information available from US FCC via Universal Licensing System and Coast Guard Vessel Documentation Center.

Last reported at 2017-Sep-22 02:00 UTC. Time now 2017-Sep-22 08:33 UTC.
Position N 30°04' W 093°21'.

Length 23 m; draft 2.7 m.

Type: Tug. MMSI: 367003780.

Date/timePositionNaut miles runAvg speedWind from/ knotsBaromVisibWave heightAir tempDewpointWater temp
2017-Sep-22 02:00N 30°04' W 093°21'0 0.0
2017-Sep-22 01:30N 30°04' W 093°21'0 0.0
2017-Sep-22 01:00N 30°04' W 093°21'0 0.0
2017-Sep-22 00:31N 30°04' W 093°21'0 0.0
2017-Sep-22 00:00N 30°04' W 093°21'0 0.0
2017-Sep-21 23:30N 30°04' W 093°21'0 0.0
2017-Sep-21 23:00N 30°04' W 093°21'0 0.0
2017-Sep-21 22:30N 30°04' W 093°21'0 0.0
2017-Sep-21 22:00N 30°04' W 093°21'0 0.0
2017-Sep-21 21:30N 30°04' W 093°21'1 1.4
2017-Sep-21 21:00N 30°04' W 093°21'0 0.4
2017-Sep-21 20:30N 30°04' W 093°21'1 1.0
2017-Sep-21 20:00N 30°04' W 093°21'0 0.0
2017-Sep-21 19:27N 30°04' W 093°21'0 0.0
2017-Sep-21 19:00N 30°04' W 093°21'0 0.0
2017-Sep-21 18:30N 30°04' W 093°21'0 0.0
2017-Sep-21 18:00N 30°04' W 093°21'0 0.0
2017-Sep-21 17:30N 30°04' W 093°21'0 0.0
2017-Sep-21 17:00N 30°04' W 093°21'0 0.0
2017-Sep-21 16:24N 30°04' W 093°21'0 0.0
2017-Sep-21 16:00N 30°04' W 093°21'0 0.0
2017-Sep-21 15:30N 30°04' W 093°21'0 0.0
2017-Sep-21 15:00N 30°04' W 093°21'0 0.0
2017-Sep-21 14:30N 30°04' W 093°21'0 0.0
2017-Sep-21 14:00N 30°04' W 093°21'0 0.0
2017-Sep-21 13:30N 30°04' W 093°21'0 0.0
2017-Sep-21 13:00N 30°04' W 093°21'0 0.0
2017-Sep-21 12:30N 30°04' W 093°21'0 0.0
2017-Sep-21 12:00N 30°04' W 093°21'0 0.0
2017-Sep-21 11:30N 30°04' W 093°21'0 0.0
2017-Sep-21 11:00N 30°04' W 093°21'0 0.0
2017-Sep-21 10:30N 30°04' W 093°21'0 0.0
2017-Sep-21 10:00N 30°04' W 093°21'0 0.0
2017-Sep-21 09:30N 30°04' W 093°21'0 0.0
2017-Sep-21 09:00N 30°04' W 093°21'0 0.0
2017-Sep-21 08:30N 30°04' W 093°21'0 0.0
2017-Sep-21 08:00N 30°04' W 093°21'0 0.0
2017-Sep-21 07:30N 30°04' W 093°21'0 0.0
2017-Sep-21 07:00N 30°04' W 093°21'0 0.0
2017-Sep-21 06:30N 30°04' W 093°21'0 0.0
2017-Sep-21 06:00N 30°04' W 093°21'0 0.3
2017-Sep-21 05:30N 30°04' W 093°21'3 5.1
2017-Sep-21 05:00N 30°04' W 093°24'0 0.0
2017-Sep-21 04:30N 30°04' W 093°24'0 0.0
2017-Sep-21 04:00N 30°04' W 093°24'1 2.6
2017-Sep-21 03:31N 30°04' W 093°25'1 1.6
2017-Sep-21 03:01N 30°04' W 093°26'3 5.5
2017-Sep-21 02:30N 30°04' W 093°29'2 3.9
2017-Sep-21 02:00N 30°04' W 093°32'78 4.7
2017-Sep-20 09:31N 29°31' W 094°53'0 6.7
2017-Sep-20 09:27N 29°32' W 094°54'3 6.7
2017-Sep-20 09:00N 29°34' W 094°56'4 7.1
2017-Sep-20 08:30N 29°37' W 094°58'4 7.5
2017-Sep-20 08:00N 29°41' W 094°59'3 5.5
2017-Sep-20 07:30N 29°43' W 095°01'2 5.0
2017-Sep-20 07:00N 29°44' W 095°03'2 0.4
2017-Sep-20 01:57N 29°45' W 095°06'3 0.6
2017-Sep-19 21:03N 29°44' W 095°09'1 5.5
2017-Sep-19 20:57N 29°44' W 095°09'0 0.0
2017-Sep-19 02:34N 29°44' W 095°10'0 0.0
2017-Sep-19 01:36N 29°44' W 095°10'0 0.0
2017-Sep-19 01:28N 29°44' W 095°10'0 0.0
2017-Sep-19 01:00N 29°44' W 095°10'0 0.0
2017-Sep-19 00:30N 29°44' W 095°10'0 0.0
2017-Sep-19 00:00N 29°44' W 095°10'1 1.2
2017-Sep-18 23:17N 29°44' W 095°09'2 2.8
2017-Sep-18 22:30N 29°45' W 095°06'5 1.7
2017-Sep-18 19:47N 29°43' W 095°01'2 5.2
2017-Sep-18 19:22N 29°42' W 094°59'2 5.8
2017-Sep-18 19:00N 29°40' W 094°58'3 6.1
2017-Sep-18 18:30N 29°37' W 094°57'3 6.1
2017-Sep-18 18:00N 29°34' W 094°55'3 6.3
2017-Sep-18 17:30N 29°32' W 094°53'71 3.5
2017-Sep-17 21:14N 30°04' W 093°41'1 5.3
2017-Sep-17 20:59N 30°04' W 093°39'2 5.1
2017-Sep-17 20:30N 30°04' W 093°36'2 4.7
2017-Sep-17 20:00N 30°04' W 093°34'2 4.7
2017-Sep-17 19:30N 30°04' W 093°31'2 4.6
2017-Sep-17 19:00N 30°04' W 093°28'2 3.7
2017-Sep-17 18:30N 30°04' W 093°26'2 3.9
2017-Sep-17 18:00N 30°04' W 093°24'2 4.4
2017-Sep-17 17:30N 30°04' W 093°22'2 3.5
2017-Sep-17 17:00N 30°05' W 093°20'2 3.2
2017-Sep-17 16:30N 30°06' W 093°19'2 3.3
2017-Sep-17 16:00N 30°05' W 093°17'1 1.8
2017-Sep-17 15:30N 30°05' W 093°16'0 0.1
2017-Sep-17 15:00N 30°04' W 093°16'0 0.0
2017-Sep-17 14:30N 30°04' W 093°16'0 0.1
2017-Sep-17 14:00N 30°04' W 093°16'0 0.0
2017-Sep-17 13:30N 30°04' W 093°16'0 0.0
2017-Sep-17 13:00N 30°04' W 093°16'0 0.0
2017-Sep-17 12:30N 30°04' W 093°16'0 0.0
2017-Sep-17 12:00N 30°04' W 093°16'0 0.0
2017-Sep-17 11:30N 30°04' W 093°16'0 0.0
2017-Sep-17 11:00N 30°04' W 093°16'0 0.1
2017-Sep-17 10:30N 30°04' W 093°16'0 0.0
2017-Sep-17 10:00N 30°04' W 093°16'0 0.0
2017-Sep-17 09:30N 30°04' W 093°16'0 0.0
2017-Sep-17 09:00N 30°04' W 093°16'0 0.0
2017-Sep-17 08:30N 30°04' W 093°16'0 0.0
2017-Sep-17 08:00N 30°04' W 093°16'0 0.0
2017-Sep-17 07:30N 30°04' W 093°16'0 0.0
2017-Sep-17 07:00N 30°04' W 093°16'0 0.0
2017-Sep-17 06:30N 30°04' W 093°16'0 0.0
2017-Sep-17 06:00N 30°04' W 093°16'0 0.0
2017-Sep-17 05:30N 30°04' W 093°16'0 0.0
2017-Sep-17 04:57N 30°04' W 093°16'0 0.0
2017-Sep-17 04:30N 30°04' W 093°16'0 0.0
2017-Sep-17 04:00N 30°04' W 093°16'0 0.0
2017-Sep-17 03:30N 30°04' W 093°16'0 0.0
2017-Sep-17 03:00N 30°04' W 093°16'0 0.6
2017-Sep-17 02:30N 30°04' W 093°16'0 0.0
2017-Sep-17 02:00N 30°04' W 093°16'0 0.1
2017-Sep-17 01:30N 30°04' W 093°16'0 0.1
2017-Sep-17 01:00N 30°04' W 093°16'1 2.2
2017-Sep-17 00:30N 30°03' W 093°16'2 3.2
2017-Sep-17 00:00N 30°02' W 093°15'2 4.0
2017-Sep-16 23:30N 30°00' W 093°13'2 4.3
2017-Sep-16 23:00N 29°58' W 093°12'2 4.9
2017-Sep-16 22:30N 29°57' W 093°10'2 4.4
2017-Sep-16 22:00N 29°56' W 093°08'2 3.9
2017-Sep-16 21:23N 29°56' W 093°05'41 4.4
2017-Sep-16 12:12N 29°50' W 092°18'1 3.0
2017-Sep-16 11:59N 29°50' W 092°18'1 2.4
2017-Sep-16 11:30N 29°49' W 092°17'1 1.9
2017-Sep-16 11:00N 29°48' W 092°16'0 0.1
2017-Sep-16 10:30N 29°48' W 092°16'0 0.0
2017-Sep-16 10:00N 29°48' W 092°16'0 0.0
2017-Sep-16 09:30N 29°48' W 092°16'0 0.0
2017-Sep-16 09:00N 29°48' W 092°16'0 0.0
2017-Sep-16 08:30N 29°48' W 092°16'0 0.0
2017-Sep-16 08:00N 29°48' W 092°16'0 0.0
2017-Sep-16 07:30N 29°48' W 092°16'0 0.0
2017-Sep-16 07:00N 29°48' W 092°16'0 0.0
2017-Sep-16 06:30N 29°48' W 092°16'1 1.6
2017-Sep-16 06:00N 29°48' W 092°15'1 2.1
2017-Sep-16 05:30N 29°48' W 092°14'1 2.9
2017-Sep-16 05:00N 29°47' W 092°12'0 0.7
2017-Sep-16 04:30N 29°47' W 092°12'1 2.0
2017-Sep-16 04:00N 29°47' W 092°11'1 2.0
2017-Sep-16 03:30N 29°47' W 092°10'2 4.0
2017-Sep-16 03:00N 29°47' W 092°08'2 4.6
2017-Sep-16 02:30N 29°48' W 092°05'2 4.4
2017-Sep-16 02:00N 29°49' W 092°03'64 3.6
2017-Sep-15 08:23N 29°32' W 090°51'1 4.0
2017-Sep-15 08:01N 29°32' W 090°50'2 4.0
2017-Sep-15 07:31N 29°32' W 090°47'2 3.2
2017-Sep-15 07:01N 29°33' W 090°45'2 3.2
2017-Sep-15 06:30N 29°34' W 090°44'1 2.5
2017-Sep-15 06:01N 29°35' W 090°43'1 2.4
2017-Sep-15 05:31N 29°36' W 090°43'1 2.4
2017-Sep-15 05:00N 29°37' W 090°42'1 2.7
2017-Sep-15 04:30N 29°36' W 090°41'2 3.6
2017-Sep-15 04:01N 29°36' W 090°39'2 3.7
2017-Sep-15 03:30N 29°35' W 090°37'2 3.5
2017-Sep-15 03:01N 29°35' W 090°35'2 3.6
2017-Sep-15 02:31N 29°34' W 090°33'2 3.8
2017-Sep-15 02:00N 29°34' W 090°31'1 2.5
2017-Sep-15 01:31N 29°34' W 090°30'  

Dump ship's entire track history